Daily Weather Observations for Burdell (Townsville)
For Wednesday 27th February 2019

This table is designed for ease of comparison to Bureau of Meteorology recorded weather data.

Station Details Name: BURDELL Lat: -19.24 Lon: 146.69 Height: 8.5 m
Date/Time
EST
Temp
°C
App
Temp
°C
Dew
Point
°C
Rel
Hum
%
Delta-T
°C
Wind Press
QNH
hPa
Press
MSL
hPa
Rain since
9am
mm
Dir  Spd
km/h
Gust
km/h
Spd
kts
Gust
kts
27/11:30pm 24.9 28.5 21.6 82 2.3 SE 8 10 4 6 1012.4 1012.4 0.0
27/11:00pm 24.8 27.7 21.9 84 2.0 SE 11 23 6 13 1012.6 1012.6 0.0
27/10:30pm 24.9 27.3 21.5 82 2.4 SE 14 23 7 13 1012.7 1012.7 0.0
27/10:00pm 25.8 27.6 20.8 74 3.5 SE 15 23 8 13 1012.5 1012.5 0.0
27/09:30pm 25.9 27.8 20.7 73 3.6 SE 13 18 7 10 1012.2 1012.2 0.0
27/09:00pm 25.9 27.5 21.6 77 3.0 SE 16 21 9 11 1011.8 1011.8 0.0
27/08:30pm 26.3 28.2 22.2 78 2.9 SE 24 34 13 18 1011.4 1011.4 0.0
27/08:00pm 26.4 28.3 22.2 78 3.0 ESE 22 34 12 18 1011.0 1011.0 0.0
27/07:30pm 26.6 28.7 22.4 78 3.0 ESE 25 37 14 20 1010.7 1010.7 0.0
27/07:00pm 26.8 29.1 22.4 77 3.1 E 21 29 11 16 1010.1 1010.1 0.0
27/06:30pm 27.5 30.4 22.9 77 3.3 E 23 32 13 17 1009.8 1009.8 0.0
27/06:00pm 28.4 31.5 22.4 70 4.3 ENE 19 29 10 16 1009.5 1009.5 0.0
27/05:30pm 29.2 33.2 23.3 72 4.3 ENE 24 34 13 18 1009.0 1009.0 0.0
27/05:00pm 29.9 34.3 23.5 69 4.6 E 19 26 10 14 1008.9 1008.9 0.0
27/04:30pm 30.4 35.5 24.0 69 4.7 NE 24 32 13 17 1008.8 1008.8 0.0
27/04:00pm 31.2 36.4 23.6 64 5.5 NE 21 29 11 16 1008.8 1008.8 0.0
27/03:30pm 31.4 36.3 23.2 62 5.9 NE 18 29 10 16 1008.8 1008.8 0.0
27/03:00pm 31.1 36.2 23.8 66 5.3 ENE 20 29 11 16 1008.7 1008.7 0.0
27/02:30pm 31.8 37.8 24.1 64 5.6 NE 15 26 8 14 1009.0 1009.0 0.0
27/02:00pm 29.4 34.9 24.7 76 3.5 ESE 8 13 5 7 1009.5 1009.5 0.0
27/01:30pm 30.0 34.1 23.1 67 5.0 ENE 19 23 10 13 1009.9 1009.9 0.0
27/01:00pm 29.2 32.8 22.8 69 4.6 E 20 29 11 16 1010.5 1010.5 0.0
27/12:30pm 30.6 34.5 22.5 65 5.8 E 12 21 7 11 1010.7 1010.7 0.0
27/12:00pm 30.6 33.2 21.4 59 6.4 ESE 12 18 6 10 1011.1 1011.1 0.0
27/11:30am 30.0 32.6 21.5 61 6.0 SE 15 18 8 10 1011.4 1011.4 0.0
27/11:00am 28.9 31.5 21.4 64 5.2 SE 19 26 10 14 1012.1 1012.1 0.0
27/10:30am 30.4 34.1 22.3 62 5.7 ESE 18 34 10 18 1012.2 1012.2 0.0
27/10:00am 29.5 33.0 22.5 66 5.0 SE 25 34 14 18 1012.4 1012.4 0.0
27/09:30am 28.2 30.9 22.1 70 4.3 SSE 20 26 11 14 1012.5 1012.5 0.0
27/09:00am 27.5 30.2 22.2 73 3.8 S 13 16 7 9 1012.6 1012.6 0.0
27/08:30am 27.1 29.9 22.1 75 3.5 S 13 21 7 11 1012.6 1012.6 0.0
27/08:00am 26.1 27.9 21.7 77 3.1 S 15 21 8 11 1012.4 1012.4 0.0
27/07:30am 25.1 27.5 21.4 81 2.6 S 11 16 6 9 1012.1 1012.1 0.0
27/07:00am 24.0 25.6 20.9 84 2.2 S 13 16 7 9 1011.6 1011.6 0.0
27/06:30am 23.0 25.1 20.6 87 1.7 S 11 16 6 9 1011.1 1011.1 0.0
27/06:00am 22.6 24.8 20.5 88 1.4 SSE 10 18 6 10 1010.8 1010.8 0.0
27/05:30am 22.6 24.9 20.5 88 1.4 S 10 16 5 9 1010.6 1010.6 0.0
27/05:00am 22.6 25.4 20.5 88 1.4 SSE 6 8 3 4 1010.6 1010.6 0.0
27/04:30am 22.9 24.5 20.4 86 1.7 SSE 12 16 7 9 1010.4 1010.4 0.0
27/04:00am 23.1 25.0 20.2 85 2.0 SSE 11 13 6 7 1010.4 1010.4 0.0
27/03:30am 23.3 25.6 20.4 84 2.0 S 11 13 6 7 1010.5 1010.5 0.0
27/03:00am 23.4 25.2 20.3 83 2.1 S 11 13 6 7 1010.6 1010.6 0.0
27/02:30am 23.8 25.8 20.5 82 2.3 S 11 16 6 9 1010.9 1010.9 0.0
27/02:00am 24.0 25.8 20.5 81 2.4 SSE 11 16 6 9 1011.2 1011.2 0.0
27/01:30am 23.8 27.1 20.7 83 2.1 S 5 5 3 3 1011.5 1011.5 0.0
27/01:00am 24.3 27.8 20.8 81 2.4 SSW 3 5 2 3 1011.5 1011.5 0.0
27/12:30am 24.9 28.0 20.8 78 2.8 SSE 8 8 4 4 1011.7 1011.7 0.0
27/12:00am 25.4 28.1 20.9 76 3.1 SSE 8 10 5 6 1012.1 1012.1 0.0
 


NOTE: The apparent temperature specified in the table above is calculated using both the Heat Index and Steadman method. This differs to the Bureau of Meteorology's calculation which uses the Steadman method alone.